Time;durP1;ratioP1;P1;durP2;ratioP2;P2;SDS_P1;SDS_P2;PMS_P1;PMS_P2;Temp;Humidity;BMP_temperature;BMP_pressure;BME280_temperature;BME280_humidity;BME280_pressure;Samples;Min_cycle;Max_cycle;Signal;HPM_P1;HPM_P2
2022/01/07 00:02:21;;;;;;;;;18.50;18.50;;;;;7.34;60.27;101766.59;6340413;22;45250;-90
2022/01/07 00:04:47;;;;;;;;;18.50;14.50;;;;;7.32;60.35;101746.56;6311726;22;47014;-90
2022/01/07 00:07:12;;;;;;;;;21.25;15.75;;;;;7.31;61.08;101751.78;6340727;22;45251;-91
2022/01/07 00:09:37;;;;;;;;;15.75;13.50;;;;;7.30;60.40;101744.81;6340662;22;45576;-88
2022/01/07 00:12:05;;;;;;;;;16.75;14.25;;;;;7.28;60.77;101733.50;6311944;22;45365;-90
2022/01/07 00:14:31;;;;;;;;;17.00;13.00;;;;;7.24;61.29;101739.59;6340040;22;45489;-89
2022/01/07 00:16:56;;;;;;;;;15.75;14.00;;;;;7.25;61.18;101733.50;6340316;22;45364;-89
2022/01/07 00:19:21;;;;;;;;;15.75;14.50;;;;;7.22;61.72;101729.16;6312224;22;45250;-89
2022/01/07 00:21:47;;;;;;;;;18.50;14.50;;;;;7.16;61.46;101723.94;6339652;22;45383;-89
2022/01/07 00:24:12;;;;;;;;;17.00;13.50;;;;;7.09;61.64;101723.94;6340067;22;45372;-88
2022/01/07 00:26:38;;;;;;;;;17.75;14.75;;;;;7.04;61.68;101711.75;6311447;22;45847;-87
2022/01/07 00:29:03;;;;;;;;;17.50;13.25;;;;;7.02;62.25;101716.13;6340215;22;45356;-88
2022/01/07 00:31:28;;;;;;;;;15.00;12.75;;;;;7.00;61.75;101723.09;6340880;22;45345;-93
2022/01/07 00:33:54;;;;;;;;;17.00;12.00;;;;;6.94;62.56;101703.94;6341562;22;45333;-91
2022/01/07 00:36:19;;;;;;;;;14.00;12.00;;;;;6.98;62.47;101697.84;6341963;22;45287;-94
2022/01/07 00:38:45;;;;;;;;;13.50;12.00;;;;;6.94;62.18;101693.47;6314677;22;45336;-94
2022/01/07 00:41:10;;;;;;;;;15.25;12.00;;;;;6.92;62.21;101699.59;6314315;22;46137;-95
2022/01/07 00:43:36;;;;;;;;;11.75;10.25;;;;;6.78;62.58;101683.94;6314507;22;47047;-84
2022/01/07 00:46:01;;;;;;;;;14.25;12.00;;;;;6.67;63.16;101673.53;6341793;22;45179;-90
2022/01/07 00:48:27;;;;;;;;;12.00;10.75;;;;;6.70;63.24;101673.50;6342178;22;45081;-91
2022/01/07 00:50:52;;;;;;;;;11.25;7.50;;;;;6.59;63.33;101660.47;6341589;22;45203;-90
2022/01/07 00:53:18;;;;;;;;;12.75;11.50;;;;;6.58;63.74;101663.94;6341637;22;45538;-90
2022/01/07 00:55:43;;;;;;;;;11.75;9.50;;;;;6.49;63.80;101657.00;6341798;22;45331;-90
2022/01/07 00:58:09;;;;;;;;;10.25;9.75;;;;;6.49;64.04;101664.81;6341984;22;45136;-89
2022/01/07 01:00:34;;;;;;;;;11.75;10.00;;;;;6.40;64.75;101668.28;6341916;22;45163;-89
2022/01/07 01:03:00;;;;;;;;;10.25;10.00;;;;;6.39;64.65;101679.63;6341708;22;46503;-84
2022/01/07 01:05:27;;;;;;;;;14.00;13.00;;;;;6.38;64.72;101677.88;6312698;22;45546;-84
2022/01/07 01:07:52;;;;;;;;;12.00;10.75;;;;;6.37;65.26;101666.56;6341626;22;45294;-85
2022/01/07 01:10:20;;;;;;;;;10.25;9.50;;;;;6.38;64.51;101670.91;6341511;22;45211;-85
2022/01/07 01:12:46;;;;;;;;;11.75;9.50;;;;;6.39;64.74;101671.78;6341261;22;45426;-88
2022/01/07 01:15:16;;;;;;;;;10.00;10.00;;;;;6.41;65.10;101677.88;6341624;22;45664;-88
2022/01/07 01:17:42;;;;;;;;;9.50;9.50;;;;;6.34;64.72;101658.75;6313214;22;45267;-88
2022/01/07 01:20:10;;;;;;;;;13.50;11.00;;;;;6.37;64.92;101644.81;6340751;22;45376;-86
2022/01/07 01:22:36;;;;;;;;;11.25;9.00;;;;;6.38;64.69;101646.53;6312141;22;47885;-86
2022/01/07 01:25:03;;;;;;;;;14.75;11.75;;;;;6.36;64.64;101648.28;6341388;22;45392;-86
2022/01/07 01:27:28;;;;;;;;;13.00;11.00;;;;;6.32;65.21;101655.28;6341951;22;45144;-87
2022/01/07 01:29:54;;;;;;;;;10.00;9.00;;;;;6.32;65.27;101651.78;6341455;22;45475;-86
2022/01/07 01:32:20;;;;;;;;;17.75;11.75;;;;;6.34;65.34;101656.13;6312954;22;46909;-87
2022/01/07 01:34:45;;;;;;;;;18.25;12.50;;;;;6.35;65.23;101656.97;6341041;22;45474;-88
2022/01/07 01:37:11;;;;;;;;;10.50;10.50;;;;;6.26;65.02;101653.53;6341516;22;45282;-89
2022/01/07 01:39:36;;;;;;;;;13.50;10.75;;;;;6.28;65.28;101651.78;6341457;22;45393;-88
2022/01/07 01:42:02;;;;;;;;;14.50;11.00;;;;;6.32;65.37;101664.84;6312550;22;48037;-88
2022/01/07 01:44:28;;;;;;;;;11.75;11.50;;;;;6.27;65.47;101659.63;6340782;22;45380;-87
2022/01/07 01:46:53;;;;;;;;;12.25;11.25;;;;;6.24;65.33;101660.47;6341554;22;45406;-87
2022/01/07 01:49:19;;;;;;;;;14.25;12.25;;;;;6.25;65.13;101659.59;6341045;22;45341;-85
2022/01/07 01:51:45;;;;;;;;;13.75;11.50;;;;;6.27;65.42;101659.63;6340970;22;46492;-85
2022/01/07 01:54:10;;;;;;;;;15.50;9.50;;;;;6.25;65.48;101661.34;6341401;22;45807;-85
2022/01/07 01:56:36;;;;;;;;;14.25;12.25;;;;;6.27;65.49;101663.06;6341365;22;45144;-85
2022/01/07 01:59:03;;;;;;;;;12.00;12.00;;;;;6.32;65.06;101667.44;6341619;22;45148;-84
2022/01/07 02:01:28;;;;;;;;;9.75;9.75;;;;;6.28;65.48;101657.00;6341173;22;45398;-93
2022/01/07 02:03:54;;;;;;;;;10.75;9.75;;;;;6.35;65.67;101652.63;6314026;22;45748;-87
2022/01/07 02:06:20;;;;;;;;;13.50;10.75;;;;;6.36;65.71;101643.06;6340713;22;45153;-87
2022/01/07 02:08:47;;;;;;;;;14.50;11.25;;;;;6.38;65.29;101650.03;6341227;22;45142;-86
2022/01/07 02:11:12;;;;;;;;;14.00;13.00;;;;;6.45;65.33;101637.81;6340838;22;45646;-87
2022/01/07 02:13:38;;;;;;;;;11.75;11.75;;;;;6.51;65.84;101643.06;6341674;22;45325;-93
2022/01/07 02:16:03;;;;;;;;;10.50;10.00;;;;;6.52;65.63;101644.78;6340330;22;45414;-94
2022/01/07 02:18:29;;;;;;;;;14.75;11.75;;;;;6.54;65.30;101636.97;6341428;22;45540;-85
2022/01/07 02:20:54;;;;;;;;;13.75;11.75;;;;;6.61;65.52;101638.69;6341151;22;45369;-88
2022/01/07 02:23:20;;;;;;;;;10.50;9.50;;;;;6.58;65.08;101625.63;6308808;22;45565;-85
2022/01/07 02:25:46;;;;;;;;;12.25;10.50;;;;;6.59;65.25;101634.34;6310208;22;45234;-82
2022/01/07 02:28:12;;;;;;;;;14.50;10.75;;;;;6.53;65.29;101623.03;6309502;22;45404;-82
2022/01/07 02:30:38;;;;;;;;;10.00;10.00;;;;;6.54;65.82;101616.06;6307453;22;48167;-93
2022/01/07 02:33:04;;;;;;;;;12.25;11.75;;;;;6.56;65.56;101623.88;6308061;22;45215;-91
2022/01/07 02:35:32;;;;;;;;;8.75;8.75;;;;;6.58;65.77;101603.84;6306957;22;45252;-88
2022/01/07 02:37:59;;;;;;;;;12.00;11.00;;;;;6.60;65.71;101602.09;6307713;22;45478;-90
2022/01/07 02:40:25;;;;;;;;;12.25;10.25;;;;;6.62;65.63;101608.19;6309813;22;45361;-91
2022/01/07 02:42:51;;;;;;;;;10.25;10.25;;;;;6.58;66.10;101590.78;6307743;22;45726;-88
2022/01/07 02:45:16;;;;;;;;;11.75;10.25;;;;;6.60;65.71;101600.38;6309652;22;45132;-87
2022/01/07 02:47:54;;;;;;;;;13.25;10.50;;;;;6.59;65.85;101589.94;6309516;22;45135;-87
2022/01/07 02:50:30;;;;;;;;;11.25;8.50;;;;;6.60;65.70;101583.81;6309041;22;45311;-84
2022/01/07 02:52:56;;;;;;;;;12.25;9.50;;;;;6.57;66.54;101582.06;6307301;22;45967;-85
2022/01/07 02:55:23;;;;;;;;;9.00;8.75;;;;;6.59;66.17;101576.88;6309741;22;45495;-83
2022/01/07 02:57:49;;;;;;;;;13.00;10.75;;;;;6.62;66.33;101577.72;6309193;22;45306;-83
2022/01/07 03:00:19;;;;;;;;;11.25;10.25;;;;;6.68;66.37;101581.19;6309579;22;46005;-84
2022/01/07 03:02:46;;;;;;;;;10.25;10.00;;;;;6.66;65.99;101578.59;6309882;22;45445;-84
2022/01/07 03:05:12;;;;;;;;;10.00;9.50;;;;;6.68;65.90;101565.50;6309189;22;45313;-84
2022/01/07 03:07:38;;;;;;;;;10.75;10.00;;;;;6.70;65.94;101572.47;6309419;22;45313;-83
2022/01/07 03:10:06;;;;;;;;;13.50;11.00;;;;;6.69;65.88;101567.25;6309006;22;45282;-85
2022/01/07 03:12:31;;;;;;;;;10.25;9.50;;;;;6.69;65.89;101562.88;6309078;22;45628;-84
2022/01/07 03:14:57;;;;;;;;;10.00;10.00;;;;;6.72;66.22;101559.38;6309524;22;45250;-85
2022/01/07 03:17:22;;;;;;;;;11.00;10.00;;;;;6.75;65.79;101568.09;6308959;22;45260;-84
2022/01/07 03:19:47;;;;;;;;;10.50;9.50;;;;;6.80;66.24;101575.91;6308671;22;45233;-86
2022/01/07 03:22:13;;;;;;;;;8.75;8.50;;;;;6.78;65.38;101568.97;6321397;22;45092;-85
2022/01/07 03:24:38;;;;;;;;;7.50;6.25;;;;;6.78;65.06;101574.19;6312311;22;45281;-82
2022/01/07 03:27:05;;;;;;;;;10.75;9.25;;;;;6.77;65.80;101559.38;6312433;22;46781;-82
2022/01/07 03:29:30;;;;;;;;;10.75;9.25;;;;;6.75;65.79;101568.09;6340784;22;46250;-86
2022/01/07 03:31:56;;;;;;;;;11.75;9.25;;;;;6.74;65.45;101566.34;6312420;22;45398;-85
2022/01/07 03:34:21;;;;;;;;;11.50;10.00;;;;;6.67;65.15;101564.63;6340560;22;46229;-89
2022/01/07 03:36:47;;;;;;;;;13.25;10.25;;;;;6.64;64.96;101567.28;6311820;22;46138;-87
2022/01/07 03:39:12;;;;;;;;;10.25;9.00;;;;;6.63;65.03;101563.78;6312456;22;46181;-93
2022/01/07 03:41:38;;;;;;;;;11.75;10.00;;;;;6.58;65.50;101562.06;6312780;22;45878;-91
2022/01/07 03:44:03;;;;;;;;;11.75;9.75;;;;;6.61;65.42;101567.28;6311595;22;45705;-91
2022/01/07 03:46:29;;;;;;;;;11.50;10.00;;;;;6.62;65.31;101566.38;6340549;22;45329;-91
2022/01/07 03:48:54;;;;;;;;;11.00;7.75;;;;;6.64;65.02;101569.91;6312144;22;48073;-91
2022/01/07 03:51:19;;;;;;;;;11.25;10.00;;;;;6.64;65.43;101562.91;6311804;22;45365;-90
2022/01/07 03:53:45;;;;;;;;;10.50;10.50;;;;;6.68;66.26;101557.66;6340839;22;45748;-89
2022/01/07 03:56:17;;;;;;;;;11.50;9.75;;;;;6.69;65.40;101552.44;6340611;22;45279;-90
2022/01/07 03:58:42;;;;;;;;;10.25;10.25;;;;;6.66;65.22;101560.31;6340459;22;45579;-89
2022/01/07 04:01:08;;;;;;;;;11.75;7.50;;;;;6.68;65.31;101555.94;6340610;22;45356;-89
2022/01/07 04:03:33;;;;;;;;;10.00;8.50;;;;;6.70;65.72;101548.97;6341240;22;45269;-94
2022/01/07 04:05:59;;;;;;;;;11.00;7.75;;;;;6.71;65.65;101555.94;6312989;22;47271;-93
2022/01/07 04:08:24;;;;;;;;;11.25;10.75;;;;;6.70;65.60;101554.19;6314860;22;47043;-95
2022/01/07 04:10:49;;;;;;;;;13.25;9.75;;;;;6.72;65.36;101546.31;6314648;22;45155;-88
2022/01/07 04:13:15;;;;;;;;;10.25;9.00;;;;;6.71;64.94;101555.06;6342173;22;45253;-88
2022/01/07 04:15:40;;;;;;;;;9.75;8.25;;;;;6.73;65.36;101546.34;6341859;22;45254;-88
2022/01/07 04:18:06;;;;;;;;;7.00;6.75;;;;;6.74;65.31;101540.22;6342035;22;46024;-92
2022/01/07 04:20:34;;;;;;;;;9.25;6.00;;;;;6.80;65.41;101531.50;6313661;22;45242;-92
2022/01/07 04:23:00;;;;;;;;;10.50;6.00;;;;;6.81;65.22;101535.88;6313157;22;45269;-88
2022/01/07 04:25:26;;;;;;;;;10.25;9.00;;;;;6.82;64.96;101534.09;6341880;22;45434;-87
2022/01/07 04:27:58;;;;;;;;;11.25;9.75;;;;;6.81;65.32;101524.53;6313409;22;47598;-86
2022/01/07 04:30:26;;;;;;;;;9.25;7.25;;;;;6.81;64.86;101521.94;6313326;22;45440;-88
2022/01/07 04:32:54;;;;;;;;;7.75;7.00;;;;;6.78;64.63;101517.56;6341603;22;45369;-87
2022/01/07 04:35:20;;;;;;;;;8.25;8.25;;;;;6.77;64.97;101521.06;6341545;22;45241;-91
2022/01/07 04:37:46;;;;;;;;;8.75;8.75;;;;;6.75;65.16;101515.84;6313641;22;47891;-91
2022/01/07 04:40:13;;;;;;;;;9.75;8.00;;;;;6.75;64.99;101515.84;6313718;22;45219;-89
2022/01/07 04:42:38;;;;;;;;;8.00;6.50;;;;;6.75;64.99;101525.41;6313623;22;45183;-87
2022/01/07 04:45:06;;;;;;;;;6.75;6.00;;;;;6.75;65.16;101510.63;6341968;22;45191;-87
2022/01/07 04:47:34;;;;;;;;;10.00;5.00;;;;;6.75;65.17;101521.06;6341204;22;46654;-88
2022/01/07 04:49:59;;;;;;;;;7.50;5.75;;;;;6.75;64.83;101510.63;6341189;22;45476;-88
2022/01/07 04:52:25;;;;;;;;;6.75;5.00;;;;;6.76;64.96;101514.09;6313859;22;45157;-92
2022/01/07 04:54:50;;;;;;;;;9.50;6.25;;;;;6.74;64.68;101516.72;6340042;22;45849;-91
2022/01/07 04:57:15;;;;;;;;;6.75;6.75;;;;;6.74;64.97;101529.78;6313300;22;46864;-90
2022/01/07 04:59:41;;;;;;;;;6.50;6.50;;;;;6.73;65.06;101528.06;6313550;22;45231;-91
2022/01/07 05:02:06;;;;;;;;;7.50;7.50;;;;;6.74;65.16;101528.94;6341777;22;45204;-87
2022/01/07 05:04:32;;;;;;;;;9.00;7.25;;;;;6.74;64.68;101516.72;6341493;22;45230;-88
2022/01/07 05:06:57;;;;;;;;;7.75;7.75;;;;;6.73;65.04;101512.38;6341338;22;45277;-88
2022/01/07 05:09:23;;;;;;;;;7.50;7.50;;;;;6.74;64.83;101502.81;6341513;22;45154;-88
2022/01/07 05:11:50;;;;;;;;;10.00;5.00;;;;;6.80;65.23;101504.50;6341865;22;45385;-87
2022/01/07 05:14:17;;;;;;;;;5.75;4.75;;;;;6.78;64.66;101501.03;6341669;22;45314;-87
2022/01/07 05:16:42;;;;;;;;;9.00;6.75;;;;;6.74;64.87;101487.97;6341294;22;46286;-87
2022/01/07 05:19:09;;;;;;;;;8.50;8.25;;;;;6.79;65.05;101495.78;6312168;22;45387;-88
2022/01/07 05:21:35;;;;;;;;;6.00;6.00;;;;;6.77;64.84;101494.91;6340946;22;45468;-88
2022/01/07 05:24:00;;;;;;;;;7.75;5.50;;;;;6.76;64.76;101503.66;6341389;22;45273;-86
2022/01/07 05:26:25;;;;;;;;;6.25;6.00;;;;;6.74;65.15;101497.56;6341462;22;45340;-87
2022/01/07 05:28:51;;;;;;;;;5.00;4.50;;;;;6.75;65.29;101520.19;6340660;22;45219;-83
2022/01/07 05:31:18;;;;;;;;;11.25;5.75;;;;;6.75;64.90;101520.19;6341252;22;45145;-90
2022/01/07 05:33:43;;;;;;;;;5.25;5.25;;;;;6.76;64.71;101527.19;6341891;22;45247;-90
2022/01/07 05:36:09;;;;;;;;;4.75;4.50;;;;;6.73;64.83;101529.78;6312871;22;47231;-91
2022/01/07 05:38:34;;;;;;;;;6.00;6.00;;;;;6.73;64.71;101533.28;6341548;22;45191;-91
2022/01/07 05:41:00;;;;;;;;;6.75;5.00;;;;;6.73;65.01;101532.41;6341923;22;45554;-90
2022/01/07 05:43:26;;;;;;;;;6.75;3.00;;;;;6.72;65.04;101523.69;6312999;22;45932;-90
2022/01/07 05:45:52;;;;;;;;;6.50;4.00;;;;;6.71;64.95;101527.19;6313125;22;46960;-90
2022/01/07 05:48:17;;;;;;;;;6.25;5.00;;;;;6.67;65.35;101522.84;6341579;22;45276;-87
2022/01/07 05:50:43;;;;;;;;;6.25;5.00;;;;;6.67;65.01;101512.38;6341094;22;45428;-84
2022/01/07 05:53:08;;;;;;;;;9.75;7.25;;;;;6.69;65.02;101515.84;6341212;22;45377;-87
2022/01/07 05:55:34;;;;;;;;;5.50;4.00;;;;;6.67;65.39;101506.31;6312973;22;47825;-81
2022/01/07 05:57:59;;;;;;;;;4.00;4.00;;;;;6.69;64.96;101521.06;6341233;22;45365;-80
2022/01/07 06:00:25;;;;;;;;;5.50;5.00;;;;;6.68;64.95;101521.97;6313499;22;45406;-88
2022/01/07 06:02:51;;;;;;;;;4.75;4.75;;;;;6.65;65.39;101511.53;6341500;22;45282;-87
2022/01/07 06:05:16;;;;;;;;;6.00;5.00;;;;;6.65;65.16;101508.91;6312083;22;47954;-83
2022/01/07 06:07:41;;;;;;;;;6.25;4.50;;;;;6.67;65.39;101501.94;6341267;22;45242;-84
2022/01/07 06:10:08;;;;;;;;;5.25;4.75;;;;;6.64;65.41;101510.66;6313221;22;45277;-85
2022/01/07 06:12:34;;;;;;;;;6.00;5.00;;;;;6.66;65.55;101513.28;6340910;22;45269;-90
2022/01/07 06:14:59;;;;;;;;;6.00;6.00;;;;;6.69;65.39;101515.84;6341494;22;45152;-88
2022/01/07 06:17:25;;;;;;;;;5.50;5.00;;;;;6.69;65.41;101518.47;6341176;22;45217;-87
2022/01/07 06:19:51;;;;;;;;;9.25;6.00;;;;;6.67;65.49;101517.59;6340996;22;45369;-90
2022/01/07 06:22:17;;;;;;;;;10.00;7.00;;;;;6.70;65.88;101519.34;6341295;22;45432;-85
2022/01/07 06:24:43;;;;;;;;;6.50;5.75;;;;;6.69;66.09;101528.91;6312960;22;46455;-89
2022/01/07 06:27:09;;;;;;;;;8.75;6.00;;;;;6.72;65.83;101513.25;6312671;22;45385;-87
2022/01/07 06:29:35;;;;;;;;;8.75;8.25;;;;;6.74;65.80;101514.09;6341044;22;45344;-87
2022/01/07 06:32:00;;;;;;;;;6.00;5.00;;;;;6.76;65.67;101527.19;6340939;22;45350;-83
2022/01/07 06:34:25;;;;;;;;;5.50;5.50;;;;;6.77;65.85;101533.25;6312287;22;46932;-89
2022/01/07 06:36:51;;;;;;;;;8.75;7.00;;;;;6.74;66.13;101534.16;6311199;22;45656;-84
2022/01/07 06:39:19;;;;;;;;;8.50;6.00;;;;;6.75;65.97;101525.41;6312883;22;45164;-86
2022/01/07 06:41:46;;;;;;;;;8.00;8.00;;;;;6.72;65.94;101517.59;6339765;22;45225;-85
2022/01/07 06:44:13;;;;;;;;;8.00;5.50;;;;;6.77;66.39;101518.44;6340418;22;45317;-84
2022/01/07 06:46:38;;;;;;;;;9.50;6.25;;;;;6.77;65.82;101509.72;6339937;22;45325;-85
2022/01/07 06:49:03;;;;;;;;;8.00;6.00;;;;;6.79;66.33;101510.63;6339298;22;45774;-86
2022/01/07 06:51:29;;;;;;;;;4.50;4.50;;;;;6.79;66.16;101515.84;6339755;22;45341;-86
2022/01/07 06:53:54;;;;;;;;;8.25;5.50;;;;;6.78;66.37;101520.19;6311367;22;47131;-84
2022/01/07 06:56:20;;;;;;;;;8.75;6.00;;;;;6.82;65.92;101514.06;6340560;22;45227;-86
2022/01/07 06:58:45;;;;;;;;;5.50;5.00;;;;;6.83;66.11;101520.16;6341226;22;45345;-85
2022/01/07 07:01:10;;;;;;;;;8.50;6.00;;;;;6.88;66.35;101509.69;6341100;22;45265;-85
2022/01/07 07:03:36;;;;;;;;;6.00;6.00;;;;;6.92;66.19;101507.06;6312670;22;47207;-85
2022/01/07 07:06:01;;;;;;;;;8.25;4.75;;;;;6.94;66.45;101507.91;6312099;22;45252;-85
2022/01/07 07:08:28;;;;;;;;;6.00;4.75;;;;;6.94;66.27;101507.91;6341305;22;45195;-85
2022/01/07 07:10:54;;;;;;;;;6.00;6.00;;;;;6.96;66.27;101514.00;6341148;22;45160;-85
2022/01/07 07:13:19;;;;;;;;;7.75;6.50;;;;;6.94;66.29;101515.75;6340902;22;45179;-88
2022/01/07 07:15:45;;;;;;;;;7.50;6.00;;;;;6.95;66.37;101514.88;6340958;22;45138;-86
2022/01/07 07:18:10;;;;;;;;;7.00;6.75;;;;;7.00;66.87;101520.09;6339783;22;45168;-87
2022/01/07 07:20:36;;;;;;;;;7.00;5.50;;;;;7.05;66.46;101525.28;6310881;22;45778;-87
2022/01/07 07:23:01;;;;;;;;;7.50;5.50;;;;;7.08;66.30;101534.00;6311808;22;46934;-87
2022/01/07 07:25:26;;;;;;;;;6.50;6.50;;;;;7.11;66.58;101535.72;6340454;22;45366;-87
2022/01/07 07:27:52;;;;;;;;;8.50;5.00;;;;;7.11;66.15;101533.09;6340974;22;45392;-87
2022/01/07 07:30:17;;;;;;;;;7.00;6.00;;;;;7.11;66.59;101537.47;6340524;22;45403;-81
2022/01/07 07:32:43;;;;;;;;;7.00;7.00;;;;;7.09;66.71;101527.88;6340404;22;45807;-82
2022/01/07 07:37:49;;;;;;;;;5.50;5.50;;;;;7.18;66.89;101539.16;6339882;22;45156;-88
2022/01/07 07:40:16;;;;;;;;;5.00;5.00;;;;;7.20;66.54;101524.34;6312180;22;45391;-84
2022/01/07 07:42:42;;;;;;;;;10.75;6.00;;;;;7.22;67.00;101532.16;6341619;22;46348;-84
2022/01/07 07:45:08;;;;;;;;;4.75;4.75;;;;;7.23;66.63;101536.53;6313640;22;45939;-85
2022/01/07 07:47:35;;;;;;;;;10.75;7.00;;;;;7.25;66.94;101537.38;6341514;22;45271;-85
2022/01/07 07:50:00;;;;;;;;;5.50;5.50;;;;;7.28;67.04;101545.22;6341030;22;45338;-85
2022/01/07 07:52:26;;;;;;;;;6.75;6.25;;;;;7.34;66.88;101546.91;6341833;22;45351;-96
2022/01/07 07:54:51;;;;;;;;;10.00;6.50;;;;;7.29;66.66;101541.69;6341609;22;45216;-84
2022/01/07 07:57:17;;;;;;;;;7.25;5.00;;;;;7.32;67.00;101553.03;6341744;22;45461;-87
2022/01/07 07:59:42;;;;;;;;;5.50;5.00;;;;;7.36;67.17;101555.63;6341490;22;45163;-85
2022/01/07 08:02:09;;;;;;;;;10.00;6.50;;;;;7.39;67.13;101568.66;6341756;22;46106;-85
2022/01/07 08:04:37;;;;;;;;;7.25;6.75;;;;;7.38;66.82;101562.56;6341895;22;45605;-84
2022/01/07 08:07:03;;;;;;;;;8.00;5.25;;;;;7.42;67.71;101560.81;6341648;22;45188;-84
2022/01/07 08:09:32;;;;;;;;;6.00;4.75;;;;;7.46;67.31;101574.75;6341552;22;45392;-83
2022/01/07 08:12:05;;;;;;;;;4.50;4.50;;;;;7.49;67.59;101572.97;6341263;22;45435;-84
2022/01/07 08:17:14;;;;;;;;;6.75;6.50;;;;;7.51;67.25;101572.94;6341308;22;45283;-81
2022/01/07 08:19:39;;;;;;;;;7.00;4.50;;;;;7.59;67.38;101571.16;6341386;22;45345;-82
2022/01/07 08:22:05;;;;;;;;;8.00;6.00;;;;;7.61;67.91;101573.75;6341064;22;45283;-81
2022/01/07 08:24:30;;;;;;;;;7.25;6.00;;;;;7.62;68.10;101560.69;6341774;22;45214;-81
2022/01/07 08:26:56;;;;;;;;;8.50;5.75;;;;;7.66;67.91;101558.88;6342213;22;45175;-81
2022/01/07 08:29:25;;;;;;;;;5.50;4.75;;;;;7.68;68.05;101569.38;6341421;22;45258;-80
2022/01/07 08:37:00;;;;;;;;;6.75;6.75;;;;;7.72;67.84;101563.22;6340836;22;45230;-81
2022/01/07 08:39:26;;;;;;;;;6.00;4.75;;;;;7.71;68.13;101564.09;6341489;22;45350;-81
2022/01/07 08:41:53;;;;;;;;;6.75;5.75;;;;;7.74;67.96;101556.22;6340736;22;46026;-81
2022/01/07 08:44:20;;;;;;;;;4.25;4.00;;;;;7.76;68.01;101555.34;6340919;22;45294;-82
2022/01/07 08:46:45;;;;;;;;;5.25;3.50;;;;;7.79;68.32;101551.81;6313373;22;45376;-82
2022/01/07 08:49:11;;;;;;;;;5.25;4.75;;;;;7.83;68.19;101566.59;6340794;22;45152;-82
2022/01/07 08:51:36;;;;;;;;;5.00;4.00;;;;;7.83;67.59;101574.47;6340834;22;45449;-82
2022/01/07 08:54:02;;;;;;;;;5.00;5.00;;;;;7.80;67.53;101571.00;6313061;22;45240;-82
2022/01/07 08:56:28;;;;;;;;;4.00;4.00;;;;;7.79;68.33;101571.88;6341830;22;45246;-82
2022/01/07 08:58:55;;;;;;;;;5.50;4.00;;;;;7.81;67.81;101564.88;6340989;22;45468;-80
2022/01/07 09:01:22;;;;;;;;;2.00;2.00;;;;;7.80;68.19;101553.56;6341705;22;45141;-80
2022/01/07 09:03:48;;;;;;;;;4.75;3.00;;;;;7.75;68.66;101518.72;6341313;22;45656;-80
2022/01/07 09:06:13;;;;;;;;;7.25;5.50;;;;;7.76;68.41;101505.59;6341255;22;45377;-80
2022/01/07 09:08:39;;;;;;;;;6.50;5.00;;;;;7.77;68.09;101509.09;6341459;22;45475;-80
2022/01/07 09:11:04;;;;;;;;;4.00;4.00;;;;;7.79;69.05;101506.44;6341514;22;46435;-80
2022/01/07 09:13:29;;;;;;;;;3.75;3.75;;;;;7.77;68.67;101516.94;6341738;22;45364;-80
2022/01/07 09:15:55;;;;;;;;;7.75;5.00;;;;;7.76;68.17;101497.75;6341988;22;45377;-80
2022/01/07 09:18:21;;;;;;;;;6.25;6.25;;;;;7.78;68.37;101510.81;6341248;22;45338;-80
2022/01/07 09:20:47;;;;;;;;;6.00;6.00;;;;;7.79;68.87;101502.09;6341076;22;45251;-80
2022/01/07 09:23:13;;;;;;;;;8.25;7.50;;;;;7.84;68.70;101508.16;6340841;22;45195;-80
2022/01/07 09:25:39;;;;;;;;;8.75;7.75;;;;;7.87;68.91;101520.34;6313011;22;45191;-80
2022/01/07 09:28:06;;;;;;;;;7.75;6.50;;;;;7.88;69.03;101527.31;6312900;22;45382;-80
2022/01/07 09:30:32;;;;;;;;;8.50;6.75;;;;;7.88;68.61;101524.69;6340465;22;46099;-80
2022/01/07 09:32:58;;;;;;;;;11.50;6.25;;;;;7.91;68.80;101529.91;6341488;22;45585;-81
2022/01/07 09:35:24;;;;;;;;;7.00;5.75;;;;;7.87;68.42;101542.16;6341174;22;45380;-81
2022/01/07 09:37:50;;;;;;;;;7.00;5.75;;;;;7.86;67.74;101548.28;6341332;22;45381;-81
2022/01/07 09:40:16;;;;;;;;;4.00;4.00;;;;;7.91;68.30;101561.31;6341374;22;45400;-80
2022/01/07 09:43:03;;;;;;;;;4.00;4.00;;;;;7.90;68.18;101563.97;6341408;22;45200;-81
2022/01/07 09:45:31;;;;;;;;;5.00;4.75;;;;;7.88;67.97;101567.44;6341846;22;45085;-81
2022/01/07 09:47:58;;;;;;;;;3.50;3.00;;;;;7.89;68.34;101563.09;6340646;22;45470;-81
2022/01/07 09:50:25;;;;;;;;;3.00;3.00;;;;;7.92;68.01;101552.59;6340786;22;46062;-80
2022/01/07 09:52:51;;;;;;;;;3.00;3.00;;;;;7.87;68.00;101555.25;6341575;22;45153;-81
2022/01/07 09:55:17;;;;;;;;;5.00;3.75;;;;;7.92;68.07;101546.47;6341444;22;45148;-81
2022/01/07 09:57:42;;;;;;;;;6.50;4.75;;;;;7.90;68.27;101554.38;6341396;22;45379;-81
2022/01/07 10:00:09;;;;;;;;;6.50;5.00;;;;;7.93;67.91;101548.19;6341166;22;46346;-81
2022/01/07 10:02:35;;;;;;;;;6.00;6.00;;;;;7.92;68.18;101547.34;6341166;22;45159;-81
2022/01/07 10:05:17;;;;;;;;;6.75;5.50;;;;;7.93;68.13;101537.72;6340238;22;45566;-81
2022/01/07 10:07:43;;;;;;;;;6.00;5.25;;;;;7.94;68.26;101545.59;6341238;22;45431;-81
2022/01/07 10:10:14;;;;;;;;;8.00;6.75;;;;;7.98;68.49;101549.91;6341022;22;45496;-81
2022/01/07 10:12:56;;;;;;;;;11.50;7.25;;;;;8.02;67.90;101549.88;6341349;22;45726;-80
2022/01/07 10:15:25;;;;;;;;;9.25;6.25;;;;;8.01;68.15;101538.53;6341593;22;45394;-81
2022/01/07 10:17:59;;;;;;;;;10.00;8.00;;;;;7.98;68.38;101525.47;6313056;22;46127;-81
2022/01/07 10:20:34;;;;;;;;;10.00;8.50;;;;;8.01;68.89;101530.69;6340648;22;45386;-81
2022/01/07 10:23:09;;;;;;;;;7.50;7.50;;;;;8.01;68.71;101528.06;6340426;22;45196;-81
2022/01/07 10:25:46;;;;;;;;;13.00;10.75;;;;;8.01;68.64;101519.34;6341259;22;45257;-81
2022/01/07 10:28:15;;;;;;;;;10.25;8.25;;;;;8.03;69.04;101523.69;6341020;22;45194;-81
2022/01/07 10:30:44;;;;;;;;;8.00;8.00;;;;;8.07;69.18;101525.41;6340346;22;46288;-81
2022/01/07 10:33:26;;;;;;;;;12.00;11.50;;;;;8.14;68.78;101522.72;6341338;22;45323;-81
2022/01/07 10:35:55;;;;;;;;;9.75;8.00;;;;;8.16;68.80;101528.81;6312610;22;45281;-81
2022/01/07 10:38:28;;;;;;;;;12.50;7.75;;;;;8.12;68.85;101511.41;6330680;22;45755;-80
2022/01/07 10:40:59;;;;;;;;;8.50;8.25;;;;;8.15;68.40;101512.22;6335407;22;45470;-81
2022/01/07 10:43:31;;;;;;;;;7.00;7.00;;;;;8.14;69.17;101502.66;6340484;22;45369;-81
2022/01/07 10:46:11;;;;;;;;;10.25;8.00;;;;;8.15;68.28;101504.34;6339361;22;45167;-81
2022/01/07 10:48:39;;;;;;;;;10.00;8.50;;;;;8.20;68.22;101499.06;6340251;22;45239;-80
2022/01/07 10:51:10;;;;;;;;;9.75;6.75;;;;;8.19;68.46;101503.47;6339158;22;46131;-80
2022/01/07 10:53:37;;;;;;;;;6.75;6.50;;;;;8.17;68.61;101493.88;6339034;22;45373;-81
2022/01/07 10:56:32;;;;;;;;;7.25;5.00;;;;;8.17;68.59;101489.50;6341449;22;45319;-81
2022/01/07 10:59:11;;;;;;;;;7.00;4.00;;;;;8.24;68.58;101499.91;6334430;22;45449;-81
2022/01/07 11:01:44;;;;;;;;;3.00;3.00;;;;;8.27;68.04;101505.97;6340386;22;45504;-81
2022/01/07 11:04:19;;;;;;;;;3.00;3.00;;;;;8.27;68.59;101503.34;6340334;22;45748;-81
2022/01/07 11:06:47;;;;;;;;;3.00;3.00;;;;;8.33;68.29;101500.69;6338999;22;45372;-81
2022/01/07 11:09:14;;;;;;;;;3.25;3.00;;;;;8.43;67.88;101503.19;6340566;22;45387;-81
2022/01/07 11:12:04;;;;;;;;;3.25;3.25;;;;;8.50;68.36;101517.97;6340793;22;45388;-81
2022/01/07 11:14:32;;;;;;;;;2.50;2.00;;;;;8.52;68.08;101505.69;6339561;22;45317;-81
2022/01/07 11:17:03;;;;;;;;;4.50;4.00;;;;;8.62;68.59;101511.72;6340415;22;45097;-80
2022/01/07 11:19:35;;;;;;;;;2.00;2.00;;;;;8.69;68.03;101502.06;6339553;22;45354;-80
2022/01/07 11:22:02;;;;;;;;;4.00;4.00;;;;;8.75;67.82;101501.09;6339222;22;46284;-81
2022/01/07 11:24:42;;;;;;;;;4.50;3.00;;;;;8.81;67.09;101502.78;6341429;22;46193;-81
2022/01/07 11:27:11;;;;;;;;;3.00;3.00;;;;;8.86;67.49;101516.69;6340474;22;45302;-81
2022/01/07 11:29:59;;;;;;;;;2.50;0.75;;;;;8.87;67.39;101502.69;6340210;22;45464;-80
2022/01/07 11:32:25;;;;;;;;;3.25;2.00;;;;;8.93;67.55;101494.75;6340954;22;46110;-81
2022/01/07 11:34:50;;;;;;;;;1.00;1.00;;;;;8.95;67.32;101499.97;6338484;22;45295;-81
2022/01/07 11:37:36;;;;;;;;;5.25;1.00;;;;;9.02;66.54;101495.50;6312035;22;45355;-80